sensor_id;sensor_type;location;lat;lon;timestamp;pressure;altitude;pressure_sealevel;temperature;humidity
8894;BME280;4483;48.622;9.230;2023-05-02T00:01:58;97991.50;;;10.10;100.00
8894;BME280;4483;48.622;9.230;2023-05-02T00:04:24;97993.38;;;10.05;100.00
8894;BME280;4483;48.622;9.230;2023-05-02T00:06:51;97984.19;;;9.98;100.00
8894;BME280;4483;48.622;9.230;2023-05-02T00:09:18;97985.84;;;9.99;100.00
8894;BME280;4483;48.622;9.230;2023-05-02T00:11:45;97979.97;;;9.95;100.00
8894;BME280;4483;48.622;9.230;2023-05-02T00:14:13;97985.19;;;9.94;100.00
8894;BME280;4483;48.622;9.230;2023-05-02T00:16:40;97973.38;;;9.88;100.00
8894;BME280;4483;48.622;9.230;2023-05-02T00:19:06;97979.59;;;9.83;100.00
8894;BME280;4483;48.622;9.230;2023-05-02T00:21:33;97980.53;;;9.80;100.00
8894;BME280;4483;48.622;9.230;2023-05-02T00:24:00;97978.94;;;9.76;100.00
8894;BME280;4483;48.622;9.230;2023-05-02T00:26:26;97980.84;;;9.71;100.00
8894;BME280;4483;48.622;9.230;2023-05-02T00:28:53;97980.97;;;9.68;100.00
8894;BME280;4483;48.622;9.230;2023-05-02T00:31:21;97983.59;;;9.67;100.00
8894;BME280;4483;48.622;9.230;2023-05-02T00:33:47;97982.81;;;9.65;100.00
8894;BME280;4483;48.622;9.230;2023-05-02T00:36:14;97982.00;;;9.63;100.00
8894;BME280;4483;48.622;9.230;2023-05-02T00:38:41;97976.94;;;9.60;100.00
8894;BME280;4483;48.622;9.230;2023-05-02T00:41:07;97982.16;;;9.58;100.00
8894;BME280;4483;48.622;9.230;2023-05-02T00:43:34;97987.41;;;9.55;100.00
8894;BME280;4483;48.622;9.230;2023-05-02T00:46:01;97982.31;;;9.54;100.00
8894;BME280;4483;48.622;9.230;2023-05-02T00:48:29;97985.78;;;9.53;100.00
8894;BME280;4483;48.622;9.230;2023-05-02T00:50:57;97984.13;;;9.52;100.00
8894;BME280;4483;48.622;9.230;2023-05-02T00:53:23;97993.59;;;9.50;100.00
8894;BME280;4483;48.622;9.230;2023-05-02T00:55:50;97993.72;;;9.47;100.00
8894;BME280;4483;48.622;9.230;2023-05-02T00:58:19;97995.44;;;9.46;100.00
8894;BME280;4483;48.622;9.230;2023-05-02T01:00:57;97994.59;;;9.46;100.00
8894;BME280;4483;48.622;9.230;2023-05-02T01:03:36;97987.88;;;9.42;100.00
8894;BME280;4483;48.622;9.230;2023-05-02T01:06:12;98000.72;;;9.42;100.00
8894;BME280;4483;48.622;9.230;2023-05-02T01:08:48;97997.47;;;9.37;100.00
8894;BME280;4483;48.622;9.230;2023-05-02T01:11:19;98004.41;;;9.35;100.00
8894;BME280;4483;48.622;9.230;2023-05-02T01:13:50;97997.63;;;9.32;100.00
8894;BME280;4483;48.622;9.230;2023-05-02T01:16:19;98003.59;;;9.33;100.00
8894;BME280;4483;48.622;9.230;2023-05-02T01:18:50;97997.78;;;9.28;100.00
8894;BME280;4483;48.622;9.230;2023-05-02T01:21:18;98008.06;;;9.28;100.00
8894;BME280;4483;48.622;9.230;2023-05-02T01:23:52;98016.72;;;9.25;100.00
8894;BME280;4483;48.622;9.230;2023-05-02T01:26:27;98014.25;;;9.22;100.00
8894;BME280;4483;48.622;9.230;2023-05-02T01:28:58;98010.88;;;9.20;100.00
8894;BME280;4483;48.622;9.230;2023-05-02T01:31:26;98004.16;;;9.16;100.00
8894;BME280;4483;48.622;9.230;2023-05-02T01:33:55;98011.97;;;9.13;100.00
8894;BME280;4483;48.622;9.230;2023-05-02T01:36:26;98003.53;;;9.09;100.00
8894;BME280;4483;48.622;9.230;2023-05-02T01:38:56;98008.72;;;9.08;100.00
8894;BME280;4483;48.622;9.230;2023-05-02T01:41:25;98009.66;;;9.05;100.00
8894;BME280;4483;48.622;9.230;2023-05-02T01:43:53;98007.19;;;9.02;100.00
8894;BME280;4483;48.622;9.230;2023-05-02T01:46:22;98012.34;;;9.01;100.00
8894;BME280;4483;48.622;9.230;2023-05-02T01:48:51;98009.94;;;8.96;100.00
8894;BME280;4483;48.622;9.230;2023-05-02T01:51:19;98005.94;;;8.88;100.00
8894;BME280;4483;48.622;9.230;2023-05-02T01:53:47;98014.47;;;8.88;100.00
8894;BME280;4483;48.622;9.230;2023-05-02T01:56:17;98010.34;;;8.84;100.00
8894;BME280;4483;48.622;9.230;2023-05-02T01:58:45;98017.31;;;8.79;100.00
8894;BME280;4483;48.622;9.230;2023-05-02T02:01:13;98025.03;;;8.79;100.00
8894;BME280;4483;48.622;9.230;2023-05-02T02:03:43;98023.34;;;8.78;100.00
8894;BME280;4483;48.622;9.230;2023-05-02T02:06:10;98013.94;;;8.77;100.00
8894;BME280;4483;48.622;9.230;2023-05-02T02:08:38;98014.06;;;8.74;100.00
8894;BME280;4483;48.622;9.230;2023-05-02T02:11:08;98007.25;;;8.73;100.00
8894;BME280;4483;48.622;9.230;2023-05-02T02:13:43;98023.63;;;8.69;100.00
8894;BME280;4483;48.622;9.230;2023-05-02T02:16:18;98019.47;;;8.65;100.00
8894;BME280;4483;48.622;9.230;2023-05-02T02:18:48;98023.91;;;8.60;100.00
8894;BME280;4483;48.622;9.230;2023-05-02T02:21:17;98023.19;;;8.55;100.00
8894;BME280;4483;48.622;9.230;2023-05-02T02:23:46;98036.03;;;8.55;100.00
8894;BME280;4483;48.622;9.230;2023-05-02T02:26:17;98032.69;;;8.53;100.00
8894;BME280;4483;48.622;9.230;2023-05-02T02:28:45;98027.69;;;8.49;100.00
8894;BME280;4483;48.622;9.230;2023-05-02T02:31:11;98035.50;;;8.44;100.00
8894;BME280;4483;48.622;9.230;2023-05-02T02:33:39;98037.31;;;8.41;100.00
8894;BME280;4483;48.622;9.230;2023-05-02T02:36:10;98045.06;;;8.39;100.00
8894;BME280;4483;48.622;9.230;2023-05-02T02:38:43;98044.38;;;8.34;100.00
8894;BME280;4483;48.622;9.230;2023-05-02T02:41:14;98054.63;;;8.34;100.00
8894;BME280;4483;48.622;9.230;2023-05-02T02:43:47;98056.34;;;8.34;100.00
8894;BME280;4483;48.622;9.230;2023-05-02T02:46:24;98058.09;;;8.33;100.00
8894;BME280;4483;48.622;9.230;2023-05-02T02:48:59;98056.41;;;8.32;100.00
8894;BME280;4483;48.622;9.230;2023-05-02T02:51:37;98061.53;;;8.32;100.00
8894;BME280;4483;48.622;9.230;2023-05-02T02:54:09;98060.72;;;8.30;100.00
8894;BME280;4483;48.622;9.230;2023-05-02T02:56:40;98062.50;;;8.28;100.00
8894;BME280;4483;48.622;9.230;2023-05-02T02:59:12;98059.19;;;8.25;100.00
8894;BME280;4483;48.622;9.230;2023-05-02T03:01:42;98073.78;;;8.21;100.00
8894;BME280;4483;48.622;9.230;2023-05-02T03:04:11;98079.03;;;8.18;100.00
8894;BME280;4483;48.622;9.230;2023-05-02T03:06:40;98085.06;;;8.15;100.00
8894;BME280;4483;48.622;9.230;2023-05-02T03:09:13;98081.88;;;8.07;100.00
8894;BME280;4483;48.622;9.230;2023-05-02T03:11:41;98084.56;;;8.03;100.00
8894;BME280;4483;48.622;9.230;2023-05-02T03:14:09;98093.16;;;8.02;100.00
8894;BME280;4483;48.622;9.230;2023-05-02T03:16:36;98088.09;;;7.99;100.00
8894;BME280;4483;48.622;9.230;2023-05-02T03:19:04;98093.22;;;7.99;100.00
8894;BME280;4483;48.622;9.230;2023-05-02T03:21:31;98101.81;;;7.98;100.00
8894;BME280;4483;48.622;9.230;2023-05-02T03:23:59;98103.56;;;7.96;100.00
8894;BME280;4483;48.622;9.230;2023-05-02T03:26:26;98097.59;;;7.95;100.00
8894;BME280;4483;48.622;9.230;2023-05-02T03:28:53;98101.03;;;7.94;100.00
8894;BME280;4483;48.622;9.230;2023-05-02T03:31:20;98110.53;;;7.91;100.00
8894;BME280;4483;48.622;9.230;2023-05-02T03:33:47;98108.09;;;7.86;100.00
8894;BME280;4483;48.622;9.230;2023-05-02T03:36:14;98109.03;;;7.82;100.00
8894;BME280;4483;48.622;9.230;2023-05-02T03:38:41;98119.34;;;7.81;100.00
8894;BME280;4483;48.622;9.230;2023-05-02T03:41:09;98124.47;;;7.81;100.00
8894;BME280;4483;48.622;9.230;2023-05-02T03:43:36;98122.75;;;7.81;100.00
8894;BME280;4483;48.622;9.230;2023-05-02T03:46:04;98125.38;;;7.80;100.00
8894;BME280;4483;48.622;9.230;2023-05-02T03:48:32;98128.75;;;7.82;100.00
8894;BME280;4483;48.622;9.230;2023-05-02T03:50:58;98139.88;;;7.81;100.00
8894;BME280;4483;48.622;9.230;2023-05-02T03:53:25;98134.72;;;7.81;100.00
8894;BME280;4483;48.622;9.230;2023-05-02T03:55:52;98150.03;;;7.84;100.00
8894;BME280;4483;48.622;9.230;2023-05-02T03:58:20;98146.53;;;7.88;100.00
8894;BME280;4483;48.622;9.230;2023-05-02T04:00:47;98142.19;;;7.90;100.00
8894;BME280;4483;48.622;9.230;2023-05-02T04:03:14;98149.81;;;7.93;100.00
8894;BME280;4483;48.622;9.230;2023-05-02T04:05:40;98148.03;;;7.95;100.00
8894;BME280;4483;48.622;9.230;2023-05-02T04:08:07;98154.13;;;7.92;100.00
8894;BME280;4483;48.622;9.230;2023-05-02T04:10:34;98163.53;;;7.92;100.00
8894;BME280;4483;48.622;9.230;2023-05-02T04:13:02;98160.16;;;7.90;100.00
8894;BME280;4483;48.622;9.230;2023-05-02T04:15:30;98168.75;;;7.89;100.00
8894;BME280;4483;48.622;9.230;2023-05-02T04:17:57;98168.75;;;7.89;100.00
8894;BME280;4483;48.622;9.230;2023-05-02T04:20:23;98172.97;;;7.90;100.00
8894;BME280;4483;48.622;9.230;2023-05-02T04:22:50;98172.94;;;7.91;100.00
8894;BME280;4483;48.622;9.230;2023-05-02T04:25:17;98171.13;;;7.95;100.00
8894;BME280;4483;48.622;9.230;2023-05-02T04:27:43;98176.16;;;7.99;100.00
8894;BME280;4483;48.622;9.230;2023-05-02T04:30:10;98173.50;;;8.02;100.00
8894;BME280;4483;48.622;9.230;2023-05-02T04:32:38;98177.59;;;8.11;100.00
8894;BME280;4483;48.622;9.230;2023-05-02T04:35:06;98179.97;;;8.17;100.00
8894;BME280;4483;48.622;9.230;2023-05-02T04:37:32;98184.19;;;8.20;100.00
8894;BME280;4483;48.622;9.230;2023-05-02T04:39:59;98180.81;;;8.18;100.00
8894;BME280;4483;48.622;9.230;2023-05-02T04:42:25;98185.13;;;8.17;100.00
8894;BME280;4483;48.622;9.230;2023-05-02T04:44:52;98189.38;;;8.18;100.00
8894;BME280;4483;48.622;9.230;2023-05-02T04:47:19;98198.78;;;8.18;100.00
8894;BME280;4483;48.622;9.230;2023-05-02T04:49:47;98196.13;;;8.21;100.00
8894;BME280;4483;48.622;9.230;2023-05-02T04:52:13;98197.88;;;8.20;100.00
8894;BME280;4483;48.622;9.230;2023-05-02T04:54:40;98193.56;;;8.22;100.00
8894;BME280;4483;48.622;9.230;2023-05-02T04:57:07;98193.56;;;8.22;100.00
8894;BME280;4483;48.622;9.230;2023-05-02T04:59:34;98200.38;;;8.23;100.00
8894;BME280;4483;48.622;9.230;2023-05-02T05:02:01;98204.56;;;8.27;100.00
8894;BME280;4483;48.622;9.230;2023-05-02T05:04:27;98203.63;;;8.31;100.00
8894;BME280;4483;48.622;9.230;2023-05-02T05:06:55;98191.50;;;8.36;100.00
8894;BME280;4483;48.622;9.230;2023-05-02T05:09:22;98203.28;;;8.43;100.00
8894;BME280;4483;48.622;9.230;2023-05-02T05:11:48;98204.00;;;8.48;100.00
8894;BME280;4483;48.622;9.230;2023-05-02T05:14:15;98204.75;;;8.53;100.00
8894;BME280;4483;48.622;9.230;2023-05-02T05:16:41;98207.97;;;8.60;100.00
8894;BME280;4483;48.622;9.230;2023-05-02T05:19:08;98207.03;;;8.64;100.00
8894;BME280;4483;48.622;9.230;2023-05-02T05:21:35;98208.56;;;8.69;100.00
8894;BME280;4483;48.622;9.230;2023-05-02T05:24:03;98211.06;;;8.72;100.00
8894;BME280;4483;48.622;9.230;2023-05-02T05:26:31;98208.31;;;8.78;100.00
8894;BME280;4483;48.622;9.230;2023-05-02T05:28:57;98211.50;;;8.88;100.00
8894;BME280;4483;48.622;9.230;2023-05-02T05:31:24;98211.22;;;8.97;100.00
8894;BME280;4483;48.622;9.230;2023-05-02T05:33:51;98219.53;;;9.05;100.00
8894;BME280;4483;48.622;9.230;2023-05-02T05:36:17;98213.34;;;9.12;100.00
8894;BME280;4483;48.622;9.230;2023-05-02T05:38:44;98217.44;;;9.19;100.00
8894;BME280;4483;48.622;9.230;2023-05-02T05:41:12;98224.91;;;9.27;100.00
8894;BME280;4483;48.622;9.230;2023-05-02T05:43:39;98229.81;;;9.34;100.00
8894;BME280;4483;48.622;9.230;2023-05-02T05:46:06;98237.31;;;9.42;100.00
8894;BME280;4483;48.622;9.230;2023-05-02T05:48:32;98241.38;;;9.50;100.00
8894;BME280;4483;48.622;9.230;2023-05-02T05:51:02;98244.59;;;9.57;100.00
8894;BME280;4483;48.622;9.230;2023-05-02T05:53:28;98241.03;;;9.61;100.00
8894;BME280;4483;48.622;9.230;2023-05-02T05:55:55;98247.63;;;9.69;100.00
8894;BME280;4483;48.622;9.230;2023-05-02T05:58:23;98249.44;;;9.66;100.00
8894;BME280;4483;48.622;9.230;2023-05-02T06:00:50;98254.59;;;9.66;100.00
8894;BME280;4483;48.622;9.230;2023-05-02T06:03:16;98248.47;;;9.70;100.00
8894;BME280;4483;48.622;9.230;2023-05-02T06:05:43;98254.31;;;9.75;100.00
8894;BME280;4483;48.622;9.230;2023-05-02T06:08:09;98256.59;;;9.84;100.00
8894;BME280;4483;48.622;9.230;2023-05-02T06:10:36;98260.47;;;9.97;100.00
8894;BME280;4483;48.622;9.230;2023-05-02T06:13:02;98272.09;;;10.10;100.00
8894;BME280;4483;48.622;9.230;2023-05-02T06:15:32;98264.94;;;10.20;100.00
8894;BME280;4483;48.622;9.230;2023-05-02T06:17:58;98272.31;;;10.30;100.00
8894;BME280;4483;48.622;9.230;2023-05-02T06:20:25;98271.94;;;10.41;100.00
8894;BME280;4483;48.622;9.230;2023-05-02T06:22:52;98269.97;;;10.49;100.00
8894;BME280;4483;48.622;9.230;2023-05-02T06:25:18;98266.22;;;10.57;100.00
8894;BME280;4483;48.622;9.230;2023-05-02T06:27:45;98276.34;;;10.63;100.00
8894;BME280;4483;48.622;9.230;2023-05-02T06:30:12;98282.34;;;10.64;100.00
8894;BME280;4483;48.622;9.230;2023-05-02T06:32:40;98285.59;;;10.69;100.00
8894;BME280;4483;48.622;9.230;2023-05-02T06:35:09;98284.59;;;10.73;100.00
8894;BME280;4483;48.622;9.230;2023-05-02T06:37:35;98296.59;;;10.74;100.00
8894;BME280;4483;48.622;9.230;2023-05-02T06:40:02;98298.31;;;10.73;100.00
8894;BME280;4483;48.622;9.230;2023-05-02T06:42:29;98301.69;;;10.75;100.00
8894;BME280;4483;48.622;9.230;2023-05-02T06:44:56;98301.59;;;10.78;100.00
8894;BME280;4483;48.622;9.230;2023-05-02T06:47:22;98302.38;;;10.80;100.00
8894;BME280;4483;48.622;9.230;2023-05-02T06:49:51;98305.72;;;10.82;100.00
8894;BME280;4483;48.622;9.230;2023-05-02T06:52:18;98309.94;;;10.85;100.00
8894;BME280;4483;48.622;9.230;2023-05-02T06:54:44;98310.69;;;10.88;100.00
8894;BME280;4483;48.622;9.230;2023-05-02T06:57:11;98307.13;;;10.92;100.00
8894;BME280;4483;48.622;9.230;2023-05-02T06:59:38;98311.41;;;10.92;100.00
8894;BME280;4483;48.622;9.230;2023-05-02T07:02:05;98315.63;;;10.94;100.00
8894;BME280;4483;48.622;9.230;2023-05-02T07:04:31;98317.97;;;11.02;100.00
8894;BME280;4483;48.622;9.230;2023-05-02T07:07:00;98316.91;;;11.07;100.00
8894;BME280;4483;48.622;9.230;2023-05-02T07:09:26;98324.38;;;11.15;100.00
8894;BME280;4483;48.622;9.230;2023-05-02T07:11:53;98317.25;;;11.22;100.00
8894;BME280;4483;48.622;9.230;2023-05-02T07:14:19;98323.06;;;11.27;100.00
8894;BME280;4483;48.622;9.230;2023-05-02T07:16:46;98334.91;;;11.32;100.00
8894;BME280;4483;48.622;9.230;2023-05-02T07:19:13;98334.69;;;11.38;100.00
8894;BME280;4483;48.622;9.230;2023-05-02T07:21:39;98333.59;;;11.45;100.00
8894;BME280;4483;48.622;9.230;2023-05-02T07:24:07;98331.63;;;11.52;100.00
8894;BME280;4483;48.622;9.230;2023-05-02T07:26:34;98322.72;;;11.60;100.00
8894;BME280;4483;48.622;9.230;2023-05-02T07:29:01;98332.78;;;11.68;100.00
8894;BME280;4483;48.622;9.230;2023-05-02T07:31:27;98332.59;;;11.72;100.00
8894;BME280;4483;48.622;9.230;2023-05-02T07:33:54;98334.81;;;11.81;100.00
8894;BME280;4483;48.622;9.230;2023-05-02T07:36:21;98343.16;;;11.89;100.00
8894;BME280;4483;48.622;9.230;2023-05-02T07:38:47;98336.84;;;11.96;100.00
8894;BME280;4483;48.622;9.230;2023-05-02T07:41:15;98342.63;;;12.03;100.00
8894;BME280;4483;48.622;9.230;2023-05-02T07:43:42;98333.75;;;12.10;100.00
8894;BME280;4483;48.622;9.230;2023-05-02T07:46:08;98336.84;;;12.18;100.00
8894;BME280;4483;48.622;9.230;2023-05-02T07:48:35;98334.94;;;12.23;100.00
8894;BME280;4483;48.622;9.230;2023-05-02T07:51:05;98344.13;;;12.30;100.00
8894;BME280;4483;48.622;9.230;2023-05-02T07:53:32;98339.47;;;12.38;100.00
8894;BME280;4483;48.622;9.230;2023-05-02T07:55:58;98340.03;;;12.46;100.00
8894;BME280;4483;48.622;9.230;2023-05-02T07:58:26;98349.09;;;12.56;100.00
8894;BME280;4483;48.622;9.230;2023-05-02T08:00:53;98344.53;;;12.63;100.00
8894;BME280;4483;48.622;9.230;2023-05-02T08:03:19;98343.28;;;12.71;100.00
8894;BME280;4483;48.622;9.230;2023-05-02T08:05:46;98344.84;;;12.75;100.00
8894;BME280;4483;48.622;9.230;2023-05-02T08:08:13;98346.41;;;12.79;100.00
8894;BME280;4483;48.622;9.230;2023-05-02T08:10:39;98349.56;;;12.86;100.00
8894;BME280;4483;48.622;9.230;2023-05-02T08:13:06;98357.72;;;12.97;100.00
8894;BME280;4483;48.622;9.230;2023-05-02T08:15:34;98355.63;;;13.06;100.00
8894;BME280;4483;48.622;9.230;2023-05-02T08:18:01;98355.00;;;13.22;100.00
8894;BME280;4483;48.622;9.230;2023-05-02T08:20:28;98360.94;;;13.24;100.00
8894;BME280;4483;48.622;9.230;2023-05-02T08:22:54;98363.94;;;13.33;100.00
8894;BME280;4483;48.622;9.230;2023-05-02T08:25:21;98360.00;;;13.45;100.00
8894;BME280;4483;48.622;9.230;2023-05-02T08:27:47;98366.59;;;13.52;100.00
8894;BME280;4483;48.622;9.230;2023-05-02T08:30:14;98375.66;;;13.62;100.00
8894;BME280;4483;48.622;9.230;2023-05-02T08:32:42;98371.03;;;13.68;100.00
8894;BME280;4483;48.622;9.230;2023-05-02T08:35:09;98373.84;;;13.82;100.00
8894;BME280;4483;48.622;9.230;2023-05-02T08:37:36;98374.41;;;13.89;100.00
8894;BME280;4483;48.622;9.230;2023-05-02T08:40:03;98382.88;;;13.92;100.00
8894;BME280;4483;48.622;9.230;2023-05-02T08:42:32;98373.97;;;13.98;100.00
8894;BME280;4483;48.622;9.230;2023-05-02T08:44:59;98384.94;;;14.04;100.00
8894;BME280;4483;48.622;9.230;2023-05-02T08:47:26;98378.59;;;14.10;100.00
8894;BME280;4483;48.622;9.230;2023-05-02T08:49:58;98381.84;;;14.15;100.00
8894;BME280;4483;48.622;9.230;2023-05-02T08:52:25;98381.53;;;14.21;100.00
8894;BME280;4483;48.622;9.230;2023-05-02T08:54:53;98371.59;;;14.31;100.00
8894;BME280;4483;48.622;9.230;2023-05-02T08:57:20;98378.25;;;14.36;100.00
8894;BME280;4483;48.622;9.230;2023-05-02T08:59:47;98377.91;;;14.44;100.00
8894;BME280;4483;48.622;9.230;2023-05-02T09:02:22;98390.31;;;14.56;100.00
8894;BME280;4483;48.622;9.230;2023-05-02T09:04:53;98382.75;;;14.68;100.00
8894;BME280;4483;48.622;9.230;2023-05-02T09:07:25;98392.69;;;14.77;100.00
8894;BME280;4483;48.622;9.230;2023-05-02T09:09:52;98390.78;;;14.81;98.65
8894;BME280;4483;48.622;9.230;2023-05-02T09:12:24;98395.91;;;14.82;98.52
8894;BME280;4483;48.622;9.230;2023-05-02T09:15:08;98397.88;;;14.94;98.53
8894;BME280;4483;48.622;9.230;2023-05-02T09:17:41;98390.34;;;15.07;97.75
8894;BME280;4483;48.622;9.230;2023-05-02T09:20:09;98392.25;;;15.21;97.08
8894;BME280;4483;48.622;9.230;2023-05-02T09:22:38;98396.91;;;15.48;96.48
8894;BME280;4483;48.622;9.230;2023-05-02T09:25:05;98384.75;;;15.81;95.88
8894;BME280;4483;48.622;9.230;2023-05-02T09:27:50;98387.75;;;16.22;94.23
8894;BME280;4483;48.622;9.230;2023-05-02T09:30:19;98381.44;;;16.57;92.82
8894;BME280;4483;48.622;9.230;2023-05-02T09:32:46;98387.53;;;16.87;90.80
8894;BME280;4483;48.622;9.230;2023-05-02T09:35:16;98380.59;;;17.02;89.34
8894;BME280;4483;48.622;9.230;2023-05-02T09:37:50;98387.63;;;17.16;87.30
8894;BME280;4483;48.622;9.230;2023-05-02T09:40:17;98394.31;;;17.20;83.22
8894;BME280;4483;48.622;9.230;2023-05-02T09:42:45;98395.03;;;17.07;78.61
8894;BME280;4483;48.622;9.230;2023-05-02T09:45:19;98389.16;;;17.04;78.03
8894;BME280;4483;48.622;9.230;2023-05-02T09:47:46;98390.88;;;17.19;80.63
8894;BME280;4483;48.622;9.230;2023-05-02T09:50:31;98396.00;;;17.78;79.75
8894;BME280;4483;48.622;9.230;2023-05-02T09:53:04;98381.91;;;18.23;78.61
8894;BME280;4483;48.622;9.230;2023-05-02T09:55:31;98385.53;;;18.35;75.89
8894;BME280;4483;48.622;9.230;2023-05-02T09:57:58;98393.03;;;18.53;75.25
8894;BME280;4483;48.622;9.230;2023-05-02T10:00:42;98390.72;;;18.75;73.71
8894;BME280;4483;48.622;9.230;2023-05-02T10:03:14;98379.41;;;18.89;72.67
8894;BME280;4483;48.622;9.230;2023-05-02T10:05:42;98371.16;;;18.95;71.58
8894;BME280;4483;48.622;9.230;2023-05-02T10:08:12;98378.09;;;19.21;70.20
8894;BME280;4483;48.622;9.230;2023-05-02T10:10:40;98381.19;;;19.40;65.63
8894;BME280;4483;48.622;9.230;2023-05-02T10:13:09;98373.41;;;20.27;66.91
8894;BME280;4483;48.622;9.230;2023-05-02T10:15:41;98381.81;;;21.14;64.05
8894;BME280;4483;48.622;9.230;2023-05-02T10:18:11;98372.50;;;21.77;61.02
8894;BME280;4483;48.622;9.230;2023-05-02T10:20:43;98356.88;;;22.31;57.68
8894;BME280;4483;48.622;9.230;2023-05-02T10:23:16;98368.81;;;22.57;57.83
8894;BME280;4483;48.622;9.230;2023-05-02T10:25:43;98371.03;;;22.51;57.85
8894;BME280;4483;48.622;9.230;2023-05-02T10:28:10;98368.94;;;22.34;55.94
8894;BME280;4483;48.622;9.230;2023-05-02T10:30:38;98363.44;;;22.37;54.40
8894;BME280;4483;48.622;9.230;2023-05-02T10:33:05;98372.59;;;21.54;53.50
8894;BME280;4483;48.622;9.230;2023-05-02T10:35:32;98380.19;;;21.24;54.76
8894;BME280;4483;48.622;9.230;2023-05-02T10:38:01;98381.28;;;21.32;54.21
8894;BME280;4483;48.622;9.230;2023-05-02T10:40:29;98378.06;;;21.29;55.54
8894;BME280;4483;48.622;9.230;2023-05-02T10:42:56;98374.34;;;20.96;55.54
8894;BME280;4483;48.622;9.230;2023-05-02T10:45:30;98375.38;;;20.59;56.05
8894;BME280;4483;48.622;9.230;2023-05-02T10:48:16;98376.56;;;20.19;56.37
8894;BME280;4483;48.622;9.230;2023-05-02T10:50:48;98369.34;;;19.97;57.39
8894;BME280;4483;48.622;9.230;2023-05-02T10:53:29;98364.94;;;20.47;57.51
8894;BME280;4483;48.622;9.230;2023-05-02T10:56:28;98359.38;;;20.75;58.30
8894;BME280;4483;48.622;9.230;2023-05-02T10:59:27;98356.53;;;20.78;57.55
8894;BME280;4483;48.622;9.230;2023-05-02T11:01:54;98355.47;;;21.50;55.53
8894;BME280;4483;48.622;9.230;2023-05-02T11:04:20;98363.34;;;21.61;55.89
8894;BME280;4483;48.622;9.230;2023-05-02T11:07:17;98364.13;;;21.39;54.77
8894;BME280;4483;48.622;9.230;2023-05-02T11:09:44;98355.28;;;20.94;55.02
8894;BME280;4483;48.622;9.230;2023-05-02T11:12:44;98351.38;;;20.29;54.57
8894;BME280;4483;48.622;9.230;2023-05-02T11:15:12;98355.75;;;19.92;55.85
8894;BME280;4483;48.622;9.230;2023-05-02T11:18:00;98367.69;;;19.84;56.27
8894;BME280;4483;48.622;9.230;2023-05-02T11:20:27;98366.44;;;19.89;56.39
8894;BME280;4483;48.622;9.230;2023-05-02T11:22:56;98363.88;;;20.49;56.12
8894;BME280;4483;48.622;9.230;2023-05-02T11:25:37;98365.00;;;21.51;54.52
8894;BME280;4483;48.622;9.230;2023-05-02T11:28:07;98353.69;;;22.17;52.50
8894;BME280;4483;48.622;9.230;2023-05-02T11:30:42;98355.25;;;22.08;52.27
8894;BME280;4483;48.622;9.230;2023-05-02T11:33:18;98354.56;;;21.84;51.04
8894;BME280;4483;48.622;9.230;2023-05-02T11:35:47;98348.34;;;22.07;52.13
8894;BME280;4483;48.622;9.230;2023-05-02T11:38:15;98347.53;;;22.49;50.24
8894;BME280;4483;48.622;9.230;2023-05-02T11:40:50;98344.91;;;22.92;49.36
8894;BME280;4483;48.622;9.230;2023-05-02T11:43:19;98341.59;;;23.11;47.54
8894;BME280;4483;48.622;9.230;2023-05-02T11:45:47;98332.41;;;22.84;48.24
8894;BME280;4483;48.622;9.230;2023-05-02T11:48:16;98321.50;;;23.10;47.68
8894;BME280;4483;48.622;9.230;2023-05-02T11:50:43;98340.19;;;23.27;47.81
8894;BME280;4483;48.622;9.230;2023-05-02T11:53:11;98333.19;;;23.17;46.92
8894;BME280;4483;48.622;9.230;2023-05-02T11:55:44;98330.00;;;22.92;46.46
8894;BME280;4483;48.622;9.230;2023-05-02T11:58:12;98334.41;;;22.60;46.79
8894;BME280;4483;48.622;9.230;2023-05-02T12:00:41;98331.38;;;22.22;47.06
8894;BME280;4483;48.622;9.230;2023-05-02T12:03:21;98330.94;;;22.06;47.53
8894;BME280;4483;48.622;9.230;2023-05-02T12:05:48;98334.75;;;21.80;47.66
8894;BME280;4483;48.622;9.230;2023-05-02T12:08:19;98336.88;;;21.53;48.00
8894;BME280;4483;48.622;9.230;2023-05-02T12:10:48;98337.56;;;21.33;48.62
8894;BME280;4483;48.622;9.230;2023-05-02T12:13:15;98336.81;;;21.20;48.73
8894;BME280;4483;48.622;9.230;2023-05-02T12:15:44;98340.72;;;21.14;49.08
8894;BME280;4483;48.622;9.230;2023-05-02T12:18:11;98334.47;;;20.93;49.20
8894;BME280;4483;48.622;9.230;2023-05-02T12:20:39;98340.09;;;20.76;49.26
8894;BME280;4483;48.622;9.230;2023-05-02T12:23:06;98334.88;;;20.52;49.18
8894;BME280;4483;48.622;9.230;2023-05-02T12:25:37;98336.22;;;20.34;49.93
8894;BME280;4483;48.622;9.230;2023-05-02T12:28:04;98339.25;;;20.28;50.39
8894;BME280;4483;48.622;9.230;2023-05-02T12:30:31;98338.97;;;20.20;50.23
8894;BME280;4483;48.622;9.230;2023-05-02T12:33:00;98341.66;;;20.31;50.66
8894;BME280;4483;48.622;9.230;2023-05-02T12:35:28;98339.91;;;20.90;50.23
8894;BME280;4483;48.622;9.230;2023-05-02T12:38:07;98340.41;;;21.41;48.96
8894;BME280;4483;48.622;9.230;2023-05-02T12:40:34;98348.53;;;21.49;48.53
8894;BME280;4483;48.622;9.230;2023-05-02T12:43:03;98348.28;;;21.30;47.89
8894;BME280;4483;48.622;9.230;2023-05-02T12:45:32;98344.28;;;21.02;47.88
8894;BME280;4483;48.622;9.230;2023-05-02T12:48:00;98338.66;;;20.72;47.61
8894;BME280;4483;48.622;9.230;2023-05-02T12:50:35;98336.53;;;20.53;47.66
8894;BME280;4483;48.622;9.230;2023-05-02T12:53:02;98339.31;;;20.39;47.84
8894;BME280;4483;48.622;9.230;2023-05-02T12:55:29;98331.53;;;20.27;48.34
8894;BME280;4483;48.622;9.230;2023-05-02T12:58:00;98336.44;;;20.78;48.23
8894;BME280;4483;48.622;9.230;2023-05-02T13:00:27;98340.19;;;21.44;47.73
8894;BME280;4483;48.622;9.230;2023-05-02T13:02:54;98332.38;;;21.99;47.60
8894;BME280;4483;48.622;9.230;2023-05-02T13:05:22;98320.63;;;22.25;46.71
8894;BME280;4483;48.622;9.230;2023-05-02T13:07:49;98328.28;;;22.28;47.14
8894;BME280;4483;48.622;9.230;2023-05-02T13:10:15;98340.72;;;22.04;46.52
8894;BME280;4483;48.622;9.230;2023-05-02T13:12:43;98353.13;;;21.80;46.82
8894;BME280;4483;48.622;9.230;2023-05-02T13:15:11;98352.06;;;21.82;46.77
8894;BME280;4483;48.622;9.230;2023-05-02T13:17:38;98342.59;;;22.13;46.53
8894;BME280;4483;48.622;9.230;2023-05-02T13:20:05;98339.69;;;22.38;46.60
8894;BME280;4483;48.622;9.230;2023-05-02T13:22:33;98335.53;;;22.78;46.27
8894;BME280;4483;48.622;9.230;2023-05-02T13:25:00;98335.19;;;23.04;45.05
8894;BME280;4483;48.622;9.230;2023-05-02T13:27:27;98322.66;;;23.17;43.87
8894;BME280;4483;48.622;9.230;2023-05-02T13:29:54;98333.38;;;23.25;44.28